sensor_id;sensor_type;location;lat;lon;timestamp;temperature;humidity
14317;DHT22;7242;50.858;6.586;2023-12-14T00:01:26;9.90;99.90
14317;DHT22;7242;50.858;6.586;2023-12-14T00:04:27;10.00;99.90
14317;DHT22;7242;50.858;6.586;2023-12-14T00:10:29;9.90;99.90
14317;DHT22;7242;50.858;6.586;2023-12-14T00:16:31;9.80;99.90
14317;DHT22;7242;50.858;6.586;2023-12-14T00:22:33;9.80;99.90
14317;DHT22;7242;50.858;6.586;2023-12-14T00:25:34;9.80;99.90
14317;DHT22;7242;50.858;6.586;2023-12-14T00:28:35;10.00;99.90
14317;DHT22;7242;50.858;6.586;2023-12-14T00:34:37;9.90;99.90
14317;DHT22;7242;50.858;6.586;2023-12-14T00:40:39;9.70;99.90
14317;DHT22;7242;50.858;6.586;2023-12-14T00:46:42;10.10;99.90
14317;DHT22;7242;50.858;6.586;2023-12-14T00:52:44;10.10;99.90
14317;DHT22;7242;50.858;6.586;2023-12-14T00:58:46;10.10;99.90
14317;DHT22;7242;50.858;6.586;2023-12-14T01:01:47;9.80;99.90
14317;DHT22;7242;50.858;6.586;2023-12-14T01:07:49;10.20;99.90
14317;DHT22;7242;50.858;6.586;2023-12-14T01:10:50;9.90;99.90
14317;DHT22;7242;50.858;6.586;2023-12-14T01:16:52;10.00;99.90
14317;DHT22;7242;50.858;6.586;2023-12-14T01:22:54;9.90;99.90
14317;DHT22;7242;50.858;6.586;2023-12-14T01:28:56;10.00;99.90
14317;DHT22;7242;50.858;6.586;2023-12-14T01:35:00;9.80;99.90
14317;DHT22;7242;50.858;6.586;2023-12-14T01:38:01;9.80;99.90
14317;DHT22;7242;50.858;6.586;2023-12-14T01:41:03;9.80;99.90
14317;DHT22;7242;50.858;6.586;2023-12-14T01:44:04;9.60;99.90
14317;DHT22;7242;50.858;6.586;2023-12-14T01:47:05;9.80;99.90
14317;DHT22;7242;50.858;6.586;2023-12-14T01:50:06;9.80;99.90
14317;DHT22;7242;50.858;6.586;2023-12-14T01:56:09;9.70;99.90
14317;DHT22;7242;50.858;6.586;2023-12-14T02:02:11;9.80;99.90
14317;DHT22;7242;50.858;6.586;2023-12-14T02:05:12;9.70;99.90
14317;DHT22;7242;50.858;6.586;2023-12-14T02:08:13;9.70;99.90
14317;DHT22;7242;50.858;6.586;2023-12-14T02:14:15;10.00;99.90
14317;DHT22;7242;50.858;6.586;2023-12-14T02:20:17;9.90;99.90
14317;DHT22;7242;50.858;6.586;2023-12-14T02:35:23;9.60;99.90
14317;DHT22;7242;50.858;6.586;2023-12-14T02:41:25;9.70;99.90
14317;DHT22;7242;50.858;6.586;2023-12-14T02:47:29;9.60;99.90
14317;DHT22;7242;50.858;6.586;2023-12-14T02:50:30;9.50;99.90
14317;DHT22;7242;50.858;6.586;2023-12-14T02:56:32;9.70;99.90
14317;DHT22;7242;50.858;6.586;2023-12-14T03:05:36;9.20;99.90
14317;DHT22;7242;50.858;6.586;2023-12-14T03:11:38;9.70;99.90
14317;DHT22;7242;50.858;6.586;2023-12-14T03:20:42;9.40;99.90
14317;DHT22;7242;50.858;6.586;2023-12-14T03:26:44;9.50;99.90
14317;DHT22;7242;50.858;6.586;2023-12-14T03:32:46;9.10;99.90
14317;DHT22;7242;50.858;6.586;2023-12-14T03:38:48;9.40;99.90
14317;DHT22;7242;50.858;6.586;2023-12-14T03:44:51;9.20;99.90
14317;DHT22;7242;50.858;6.586;2023-12-14T03:50:53;9.20;99.90
14317;DHT22;7242;50.858;6.586;2023-12-14T03:53:54;9.10;99.90
14317;DHT22;7242;50.858;6.586;2023-12-14T03:56:55;8.90;99.90
14317;DHT22;7242;50.858;6.586;2023-12-14T04:02:57;8.90;99.90
14317;DHT22;7242;50.858;6.586;2023-12-14T04:08:59;8.90;99.90
14317;DHT22;7242;50.858;6.586;2023-12-14T04:21:08;8.80;99.90
14317;DHT22;7242;50.858;6.586;2023-12-14T04:27:10;8.40;99.90
14317;DHT22;7242;50.858;6.586;2023-12-14T04:30:11;8.70;99.90
14317;DHT22;7242;50.858;6.586;2023-12-14T04:33:12;8.60;99.90
14317;DHT22;7242;50.858;6.586;2023-12-14T04:36:13;8.80;99.90
14317;DHT22;7242;50.858;6.586;2023-12-14T04:39:14;8.80;99.90
14317;DHT22;7242;50.858;6.586;2023-12-14T04:42:15;8.50;99.90
14317;DHT22;7242;50.858;6.586;2023-12-14T04:45:16;8.40;99.90
14317;DHT22;7242;50.858;6.586;2023-12-14T04:48:17;8.70;99.90
14317;DHT22;7242;50.858;6.586;2023-12-14T04:51:18;8.40;99.90
14317;DHT22;7242;50.858;6.586;2023-12-14T05:00:22;8.50;99.90
14317;DHT22;7242;50.858;6.586;2023-12-14T05:06:25;8.80;99.90
14317;DHT22;7242;50.858;6.586;2023-12-14T05:12:27;8.80;99.90
14317;DHT22;7242;50.858;6.586;2023-12-14T05:21:32;8.30;99.90
14317;DHT22;7242;50.858;6.586;2023-12-14T05:27:34;8.60;99.90
14317;DHT22;7242;50.858;6.586;2023-12-14T05:33:37;8.60;99.90
14317;DHT22;7242;50.858;6.586;2023-12-14T05:36:38;8.60;99.90
14317;DHT22;7242;50.858;6.586;2023-12-14T05:39:42;8.40;99.90
14317;DHT22;7242;50.858;6.586;2023-12-14T05:42:43;8.80;99.90
14317;DHT22;7242;50.858;6.586;2023-12-14T05:45:45;8.50;99.90
14317;DHT22;7242;50.858;6.586;2023-12-14T05:48:45;8.50;99.90
14317;DHT22;7242;50.858;6.586;2023-12-14T05:54:47;8.30;99.90
14317;DHT22;7242;50.858;6.586;2023-12-14T05:57:49;8.30;99.90
14317;DHT22;7242;50.858;6.586;2023-12-14T06:00:50;8.30;99.90
14317;DHT22;7242;50.858;6.586;2023-12-14T06:03:51;8.40;99.90
14317;DHT22;7242;50.858;6.586;2023-12-14T06:06:52;8.20;99.90
14317;DHT22;7242;50.858;6.586;2023-12-14T06:25:00;8.10;99.90
14317;DHT22;7242;50.858;6.586;2023-12-14T06:31:02;8.30;99.90
14317;DHT22;7242;50.858;6.586;2023-12-14T06:40:06;8.40;99.90
14317;DHT22;7242;50.858;6.586;2023-12-14T07:01:17;8.20;99.90
14317;DHT22;7242;50.858;6.586;2023-12-14T07:04:20;8.00;99.90
14317;DHT22;7242;50.858;6.586;2023-12-14T07:10:22;8.00;99.90
14317;DHT22;7242;50.858;6.586;2023-12-14T07:13:23;8.30;99.90
14317;DHT22;7242;50.858;6.586;2023-12-14T07:16:24;8.00;99.90
14317;DHT22;7242;50.858;6.586;2023-12-14T07:22:26;8.10;99.90
14317;DHT22;7242;50.858;6.586;2023-12-14T07:25:27;8.10;99.90
14317;DHT22;7242;50.858;6.586;2023-12-14T07:31:29;8.00;99.90
14317;DHT22;7242;50.858;6.586;2023-12-14T07:37:32;8.20;99.90
14317;DHT22;7242;50.858;6.586;2023-12-14T07:43:34;8.10;99.90
14317;DHT22;7242;50.858;6.586;2023-12-14T07:46:35;8.10;99.90
14317;DHT22;7242;50.858;6.586;2023-12-14T07:49:37;8.50;99.90
14317;DHT22;7242;50.858;6.586;2023-12-14T07:55:39;8.20;99.90
14317;DHT22;7242;50.858;6.586;2023-12-14T08:01:42;8.00;99.90
14317;DHT22;7242;50.858;6.586;2023-12-14T08:07:44;8.00;99.90
14317;DHT22;7242;50.858;6.586;2023-12-14T08:16:48;8.30;99.90
14317;DHT22;7242;50.858;6.586;2023-12-14T08:19:49;8.20;99.90
14317;DHT22;7242;50.858;6.586;2023-12-14T08:25:51;8.20;99.90
14317;DHT22;7242;50.858;6.586;2023-12-14T08:28:52;7.80;99.90
14317;DHT22;7242;50.858;6.586;2023-12-14T08:37:58;8.00;99.90
14317;DHT22;7242;50.858;6.586;2023-12-14T08:47:03;7.60;99.90
14317;DHT22;7242;50.858;6.586;2023-12-14T08:50:05;7.70;99.90
14317;DHT22;7242;50.858;6.586;2023-12-14T08:56:09;7.60;99.90
14317;DHT22;7242;50.858;6.586;2023-12-14T08:59:10;8.00;99.90
14317;DHT22;7242;50.858;6.586;2023-12-14T09:02:11;7.80;99.90
14317;DHT22;7242;50.858;6.586;2023-12-14T09:05:13;7.50;99.90
14317;DHT22;7242;50.858;6.586;2023-12-14T09:08:15;7.60;99.90
14317;DHT22;7242;50.858;6.586;2023-12-14T09:11:16;7.70;99.90
14317;DHT22;7242;50.858;6.586;2023-12-14T09:14:17;7.80;99.90
14317;DHT22;7242;50.858;6.586;2023-12-14T09:20:19;7.60;99.90
14317;DHT22;7242;50.858;6.586;2023-12-14T09:26:21;7.50;99.90
14317;DHT22;7242;50.858;6.586;2023-12-14T09:32:24;7.80;99.90
14317;DHT22;7242;50.858;6.586;2023-12-14T09:38:26;7.70;99.90
14317;DHT22;7242;50.858;6.586;2023-12-14T09:44:29;7.70;99.90
14317;DHT22;7242;50.858;6.586;2023-12-14T09:50:31;7.70;99.90
14317;DHT22;7242;50.858;6.586;2023-12-14T09:53:33;7.50;99.90
14317;DHT22;7242;50.858;6.586;2023-12-14T09:59:37;7.90;99.90
14317;DHT22;7242;50.858;6.586;2023-12-14T10:02:38;7.70;99.90
14317;DHT22;7242;50.858;6.586;2023-12-14T10:05:39;7.70;99.90
14317;DHT22;7242;50.858;6.586;2023-12-14T10:11:43;8.00;99.90
14317;DHT22;7242;50.858;6.586;2023-12-14T10:14:44;7.90;99.90
14317;DHT22;7242;50.858;6.586;2023-12-14T10:17:45;7.80;99.90
14317;DHT22;7242;50.858;6.586;2023-12-14T10:26:57;7.90;99.90
14317;DHT22;7242;50.858;6.586;2023-12-14T10:36:01;7.90;99.90
14317;DHT22;7242;50.858;6.586;2023-12-14T10:39:02;7.80;99.90
14317;DHT22;7242;50.858;6.586;2023-12-14T10:42:04;7.90;99.90
14317;DHT22;7242;50.858;6.586;2023-12-14T10:45:07;7.80;99.90
14317;DHT22;7242;50.858;6.586;2023-12-14T10:48:11;7.80;99.90
14317;DHT22;7242;50.858;6.586;2023-12-14T10:51:15;7.90;99.90
14317;DHT22;7242;50.858;6.586;2023-12-14T10:57:17;7.90;99.90
14317;DHT22;7242;50.858;6.586;2023-12-14T11:03:21;8.30;99.90
14317;DHT22;7242;50.858;6.586;2023-12-14T11:06:28;7.90;99.90
14317;DHT22;7242;50.858;6.586;2023-12-14T11:09:32;7.80;99.90
14317;DHT22;7242;50.858;6.586;2023-12-14T11:12:33;7.90;99.90
14317;DHT22;7242;50.858;6.586;2023-12-14T11:18:36;8.10;99.90
14317;DHT22;7242;50.858;6.586;2023-12-14T11:24:41;8.00;99.90
14317;DHT22;7242;50.858;6.586;2023-12-14T11:30:48;7.70;99.90
14317;DHT22;7242;50.858;6.586;2023-12-14T11:33:49;7.90;99.90
14317;DHT22;7242;50.858;6.586;2023-12-14T11:36:50;7.90;99.90
14317;DHT22;7242;50.858;6.586;2023-12-14T11:43:00;8.20;99.90
14317;DHT22;7242;50.858;6.586;2023-12-14T11:49:02;7.80;99.90
14317;DHT22;7242;50.858;6.586;2023-12-14T11:52:04;7.80;99.90
14317;DHT22;7242;50.858;6.586;2023-12-14T11:58:11;8.00;99.90
14317;DHT22;7242;50.858;6.586;2023-12-14T12:01:17;8.10;99.90
14317;DHT22;7242;50.858;6.586;2023-12-14T12:04:18;8.40;99.90
14317;DHT22;7242;50.858;6.586;2023-12-14T12:13:24;8.20;99.90
14317;DHT22;7242;50.858;6.586;2023-12-14T12:22:28;8.40;99.90
14317;DHT22;7242;50.858;6.586;2023-12-14T12:31:33;8.00;99.90
14317;DHT22;7242;50.858;6.586;2023-12-14T12:34:35;8.30;99.90
14317;DHT22;7242;50.858;6.586;2023-12-14T12:37:36;8.30;99.90
14317;DHT22;7242;50.858;6.586;2023-12-14T12:40:36;8.00;99.90
14317;DHT22;7242;50.858;6.586;2023-12-14T12:43:37;8.10;99.90
14317;DHT22;7242;50.858;6.586;2023-12-14T12:52:42;7.90;99.90
14317;DHT22;7242;50.858;6.586;2023-12-14T12:55:43;7.80;99.90
14317;DHT22;7242;50.858;6.586;2023-12-14T12:58:44;8.00;99.90
14317;DHT22;7242;50.858;6.586;2023-12-14T13:04:46;7.90;99.90
14317;DHT22;7242;50.858;6.586;2023-12-14T13:07:47;7.90;99.90
14317;DHT22;7242;50.858;6.586;2023-12-14T13:13:52;8.00;99.90
14317;DHT22;7242;50.858;6.586;2023-12-14T13:22:55;8.10;99.90
14317;DHT22;7242;50.858;6.586;2023-12-14T13:28:57;7.80;99.90
14317;DHT22;7242;50.858;6.586;2023-12-14T13:31:58;7.50;99.90
14317;DHT22;7242;50.858;6.586;2023-12-14T13:35:02;7.50;99.90
14317;DHT22;7242;50.858;6.586;2023-12-14T13:41:04;7.60;99.90
14317;DHT22;7242;50.858;6.586;2023-12-14T13:44:06;7.80;99.90
14317;DHT22;7242;50.858;6.586;2023-12-14T13:47:07;7.80;99.90
14317;DHT22;7242;50.858;6.586;2023-12-14T13:56:11;7.40;99.90
14317;DHT22;7242;50.858;6.586;2023-12-14T14:02:13;7.70;99.90
14317;DHT22;7242;50.858;6.586;2023-12-14T14:05:14;7.50;99.90
14317;DHT22;7242;50.858;6.586;2023-12-14T14:11:16;7.90;99.90
14317;DHT22;7242;50.858;6.586;2023-12-14T14:14:17;7.90;99.90
14317;DHT22;7242;50.858;6.586;2023-12-14T14:20:20;7.60;99.90
14317;DHT22;7242;50.858;6.586;2023-12-14T14:32:24;7.50;99.90
14317;DHT22;7242;50.858;6.586;2023-12-14T14:35:25;7.60;99.90
14317;DHT22;7242;50.858;6.586;2023-12-14T14:41:27;7.50;99.90
14317;DHT22;7242;50.858;6.586;2023-12-14T14:47:30;7.60;99.90
14317;DHT22;7242;50.858;6.586;2023-12-14T14:50:31;7.40;99.90
14317;DHT22;7242;50.858;6.586;2023-12-14T14:56:37;7.10;99.90
14317;DHT22;7242;50.858;6.586;2023-12-14T14:59:39;7.60;99.90
14317;DHT22;7242;50.858;6.586;2023-12-14T15:02:40;7.30;99.90
14317;DHT22;7242;50.858;6.586;2023-12-14T15:05:41;7.60;99.90
14317;DHT22;7242;50.858;6.586;2023-12-14T15:08:42;7.70;99.90
14317;DHT22;7242;50.858;6.586;2023-12-14T15:14:44;7.40;99.90
14317;DHT22;7242;50.858;6.586;2023-12-14T15:23:49;7.40;99.90
14317;DHT22;7242;50.858;6.586;2023-12-14T15:26:50;7.10;99.90
14317;DHT22;7242;50.858;6.586;2023-12-14T15:38:57;7.00;99.90
14317;DHT22;7242;50.858;6.586;2023-12-14T15:44:59;6.60;99.90
14317;DHT22;7242;50.858;6.586;2023-12-14T15:48:00;6.50;99.90
14317;DHT22;7242;50.858;6.586;2023-12-14T15:51:05;6.50;99.90
14317;DHT22;7242;50.858;6.586;2023-12-14T15:54:06;6.70;99.90
14317;DHT22;7242;50.858;6.586;2023-12-14T15:57:07;6.40;99.90
14317;DHT22;7242;50.858;6.586;2023-12-14T16:00:08;6.50;99.90
14317;DHT22;7242;50.858;6.586;2023-12-14T16:12:13;6.70;99.90
14317;DHT22;7242;50.858;6.586;2023-12-14T16:15:14;7.00;99.90
14317;DHT22;7242;50.858;6.586;2023-12-14T16:18:15;6.60;99.90
14317;DHT22;7242;50.858;6.586;2023-12-14T16:24:17;6.70;99.90
14317;DHT22;7242;50.858;6.586;2023-12-14T16:30:20;6.50;99.90
14317;DHT22;7242;50.858;6.586;2023-12-14T16:36:22;6.40;99.90
14317;DHT22;7242;50.858;6.586;2023-12-14T16:39:23;6.80;99.90
14317;DHT22;7242;50.858;6.586;2023-12-14T16:54:30;6.30;99.90
14317;DHT22;7242;50.858;6.586;2023-12-14T17:00:32;6.40;99.90
14317;DHT22;7242;50.858;6.586;2023-12-14T17:06:34;6.20;99.90
14317;DHT22;7242;50.858;6.586;2023-12-14T17:12:36;6.20;99.90
14317;DHT22;7242;50.858;6.586;2023-12-14T17:18:39;6.20;99.90
14317;DHT22;7242;50.858;6.586;2023-12-14T17:21:40;6.40;99.90
14317;DHT22;7242;50.858;6.586;2023-12-14T17:33:47;6.70;99.90
14317;DHT22;7242;50.858;6.586;2023-12-14T17:42:52;6.30;99.90
14317;DHT22;7242;50.858;6.586;2023-12-14T17:48:55;6.80;99.90
14317;DHT22;7242;50.858;6.586;2023-12-14T17:54:57;7.00;99.90
14317;DHT22;7242;50.858;6.586;2023-12-14T18:01:01;7.20;99.90
14317;DHT22;7242;50.858;6.586;2023-12-14T18:04:05;6.60;99.90
14317;DHT22;7242;50.858;6.586;2023-12-14T18:10:08;6.80;99.90
14317;DHT22;7242;50.858;6.586;2023-12-14T18:22:14;6.60;99.90
14317;DHT22;7242;50.858;6.586;2023-12-14T18:25:15;6.60;99.90
14317;DHT22;7242;50.858;6.586;2023-12-14T18:28:18;6.50;99.90
14317;DHT22;7242;50.858;6.586;2023-12-14T18:34:20;6.40;99.90
14317;DHT22;7242;50.858;6.586;2023-12-14T18:40:22;6.50;99.90
14317;DHT22;7242;50.858;6.586;2023-12-14T18:49:28;6.80;99.90
14317;DHT22;7242;50.858;6.586;2023-12-14T18:58:33;6.70;99.90
14317;DHT22;7242;50.858;6.586;2023-12-14T19:07:37;6.60;99.90
14317;DHT22;7242;50.858;6.586;2023-12-14T19:22:43;6.40;99.90
14317;DHT22;7242;50.858;6.586;2023-12-14T19:28:45;6.60;99.90
14317;DHT22;7242;50.858;6.586;2023-12-14T19:37:49;6.20;99.90
14317;DHT22;7242;50.858;6.586;2023-12-14T19:56:01;6.40;99.90
14317;DHT22;7242;50.858;6.586;2023-12-14T19:59:10;6.20;99.90
14317;DHT22;7242;50.858;6.586;2023-12-14T20:05:12;6.50;99.90
14317;DHT22;7242;50.858;6.586;2023-12-14T20:23:23;6.40;99.90
14317;DHT22;7242;50.858;6.586;2023-12-14T20:26:24;6.90;99.90
14317;DHT22;7242;50.858;6.586;2023-12-14T20:32:32;6.40;99.90
14317;DHT22;7242;50.858;6.586;2023-12-14T20:38:36;6.30;99.90
14317;DHT22;7242;50.858;6.586;2023-12-14T20:44:39;6.50;99.90
14317;DHT22;7242;50.858;6.586;2023-12-14T20:50:41;6.40;99.90
14317;DHT22;7242;50.858;6.586;2023-12-14T20:56:44;6.70;99.90
14317;DHT22;7242;50.858;6.586;2023-12-14T20:59:45;6.40;99.90
14317;DHT22;7242;50.858;6.586;2023-12-14T21:08:49;6.30;99.90
14317;DHT22;7242;50.858;6.586;2023-12-14T21:14:52;6.30;99.90
14317;DHT22;7242;50.858;6.586;2023-12-14T21:23:55;6.60;99.90
14317;DHT22;7242;50.858;6.586;2023-12-14T21:33:19;6.40;99.90
14317;DHT22;7242;50.858;6.586;2023-12-14T21:39:21;6.10;99.90
14317;DHT22;7242;50.858;6.586;2023-12-14T21:51:26;6.80;99.90
14317;DHT22;7242;50.858;6.586;2023-12-14T22:00:29;6.60;99.90
14317;DHT22;7242;50.858;6.586;2023-12-14T22:15:35;6.60;99.90
14317;DHT22;7242;50.858;6.586;2023-12-14T22:18:36;6.20;99.90
14317;DHT22;7242;50.858;6.586;2023-12-14T22:24:38;6.30;99.90
14317;DHT22;7242;50.858;6.586;2023-12-14T22:30:41;6.60;99.90
14317;DHT22;7242;50.858;6.586;2023-12-14T22:39:44;6.70;99.90
14317;DHT22;7242;50.858;6.586;2023-12-14T23:03:59;6.40;99.90
14317;DHT22;7242;50.858;6.586;2023-12-14T23:07:01;6.50;99.90
14317;DHT22;7242;50.858;6.586;2023-12-14T23:13:04;6.60;99.90
14317;DHT22;7242;50.858;6.586;2023-12-14T23:19:06;6.70;99.90
14317;DHT22;7242;50.858;6.586;2023-12-14T23:25:08;6.80;99.90
14317;DHT22;7242;50.858;6.586;2023-12-14T23:34:11;6.90;99.90
14317;DHT22;7242;50.858;6.586;2023-12-14T23:37:12;7.20;99.90
14317;DHT22;7242;50.858;6.586;2023-12-14T23:52:18;6.90;99.90
